createdAt,value
2022-07-29T00:09:17.301Z,15.80
2022-07-29T00:19:19.367Z,15.70
2022-07-29T00:29:38.141Z,15.50
2022-07-29T00:39:40.078Z,15.40
2022-07-29T00:49:43.501Z,15.30
2022-07-29T00:59:45.514Z,15.10
2022-07-29T01:09:48.858Z,15.00
2022-07-29T01:19:59.083Z,14.90
2022-07-29T01:30:05.195Z,14.70
2022-07-29T01:40:15.010Z,14.70
2022-07-29T01:50:19.575Z,14.70
2022-07-29T02:00:22.686Z,14.70
2022-07-29T02:10:29.391Z,14.70
2022-07-29T02:20:32.658Z,14.60
2022-07-29T02:30:40.139Z,14.60
2022-07-29T02:40:44.609Z,14.50
2022-07-29T02:50:55.666Z,14.40
2022-07-29T03:00:59.545Z,14.20
2022-07-29T03:11:03.968Z,14.00
2022-07-29T03:21:06.291Z,13.70
2022-07-29T03:31:09.691Z,13.50
2022-07-29T03:41:14.236Z,13.40
2022-07-29T03:51:17.550Z,13.30
2022-07-29T04:01:21.179Z,13.20
2022-07-29T04:11:24.709Z,13.10
2022-07-29T04:21:59.121Z,13.00
2022-07-29T04:32:02.450Z,12.80
2022-07-29T04:42:04.907Z,12.80
2022-07-29T04:52:11.897Z,12.80
2022-07-29T05:02:13.850Z,12.90
2022-07-29T05:12:17.155Z,12.90
2022-07-29T05:22:19.383Z,13.00
2022-07-29T05:32:22.691Z,13.20
2022-07-29T05:42:24.958Z,13.40
2022-07-29T05:52:28.298Z,13.60
2022-07-29T06:02:30.272Z,14.30
2022-07-29T06:12:33.635Z,15.00
2022-07-29T06:22:35.584Z,15.70
2022-07-29T06:32:42.937Z,16.50
2022-07-29T06:42:45.598Z,17.10
2022-07-29T06:52:49.115Z,17.50
2022-07-29T07:02:51.179Z,18.20
2022-07-29T07:12:54.543Z,18.80
2022-07-29T07:22:56.494Z,19.10
2022-07-29T07:33:01.053Z,19.80
2022-07-29T07:43:03.039Z,20.10
2022-07-29T07:53:06.527Z,19.70
2022-07-29T08:03:16.734Z,19.70
2022-07-29T08:13:22.070Z,20.10
2022-07-29T08:23:25.416Z,20.90
2022-07-29T08:33:28.882Z,23.40
2022-07-29T08:43:30.963Z,23.00
2022-07-29T08:53:34.689Z,25.10
2022-07-29T09:03:38.562Z,26.20
2022-07-29T09:13:42.053Z,27.20
2022-07-29T09:24:01.098Z,27.70
2022-07-29T09:34:05.139Z,29.50
2022-07-29T09:44:07.242Z,30.20
2022-07-29T09:54:24.088Z,30.20
2022-07-29T10:04:38.195Z,30.80
2022-07-29T10:14:42.472Z,30.70
2022-07-29T10:24:45.573Z,30.70
2022-07-29T10:35:20.092Z,30.80
2022-07-29T10:45:22.860Z,31.00
2022-07-29T10:55:38.243Z,31.10
2022-07-29T11:05:56.747Z,31.00
2022-07-29T11:16:03.326Z,30.90
2022-07-29T11:26:19.316Z,30.10
2022-07-29T11:36:27.987Z,29.50
2022-07-29T11:46:50.522Z,29.70
2022-07-29T11:56:54.159Z,29.70
2022-07-29T12:07:00.404Z,28.70
2022-07-29T12:17:03.980Z,28.50
2022-07-29T12:27:08.463Z,28.60
2022-07-29T12:37:12.689Z,28.60
2022-07-29T12:47:15.298Z,27.90
2022-07-29T12:57:20.051Z,27.80
2022-07-29T13:07:55.820Z,27.30
2022-07-29T13:17:49.188Z,28.20
2022-07-29T13:27:51.388Z,27.90
2022-07-29T13:37:56.973Z,27.00
2022-07-29T13:47:58.971Z,28.00
2022-07-29T13:58:02.564Z,27.70
2022-07-29T14:08:06.383Z,28.10
2022-07-29T14:18:09.734Z,27.90
2022-07-29T14:28:11.778Z,28.50
2022-07-29T14:38:18.085Z,28.40
2022-07-29T14:48:20.088Z,28.30
2022-07-29T14:58:23.458Z,29.10
2022-07-29T15:08:25.450Z,29.50
2022-07-29T15:18:28.855Z,29.40
2022-07-29T15:28:30.932Z,29.70
2022-07-29T15:38:34.265Z,29.70
2022-07-29T15:48:39.577Z,28.90
2022-07-29T15:58:42.932Z,27.90
2022-07-29T16:08:45.109Z,27.50
2022-07-29T16:18:48.472Z,27.20
2022-07-29T16:28:50.698Z,26.90
2022-07-29T16:38:55.148Z,26.70
2022-07-29T16:48:57.190Z,26.70
2022-07-29T16:59:00.561Z,26.90
2022-07-29T17:09:03.344Z,26.90
2022-07-29T17:19:06.702Z,26.50
2022-07-29T17:29:08.726Z,26.10
2022-07-29T17:50:30.178Z,25.10
2022-07-29T18:11:45.871Z,24.40
2022-07-29T18:21:54.134Z,24.20
2022-07-29T18:31:58.162Z,24.00
2022-07-29T18:42:01.678Z,23.80
2022-07-29T18:52:05.452Z,23.60
2022-07-29T19:02:07.626Z,23.50
2022-07-29T19:12:11.246Z,23.30
2022-07-29T19:22:16.306Z,23.10
2022-07-29T19:32:36.972Z,23.00
2022-07-29T19:43:51.368Z,22.70
2022-07-29T19:53:52.994Z,22.40
2022-07-29T20:14:12.388Z,22.10
2022-07-29T20:24:14.369Z,21.80
2022-07-29T20:34:43.012Z,21.60
2022-07-29T20:44:45.105Z,21.30
2022-07-29T20:54:48.530Z,21.10
2022-07-29T21:04:50.901Z,20.90
2022-07-29T21:14:54.475Z,20.80
2022-07-29T21:24:56.607Z,20.50
2022-07-29T21:34:59.913Z,20.40
2022-07-29T21:45:06.432Z,20.20
2022-07-29T21:55:11.438Z,20.10
2022-07-29T22:05:13.973Z,19.90
2022-07-29T22:26:31.553Z,19.50
2022-07-29T22:36:33.557Z,19.50
2022-07-29T22:46:37.048Z,19.50
2022-07-29T22:56:39.102Z,19.40
2022-07-29T23:06:42.419Z,19.20
2022-07-29T23:16:44.398Z,19.10
2022-07-29T23:26:47.791Z,19.00
2022-07-29T23:36:49.744Z,18.90
2022-07-29T23:46:53.062Z,18.80
2022-07-29T23:56:55.140Z,18.70
